Time;durP1;ratioP1;P1;durP2;ratioP2;P2;SDS_P1;SDS_P2;PMS_P1;PMS_P2;Temp;Humidity;BMP_temperature;BMP_pressure;BME280_temperature;BME280_humidity;BME280_pressure;Samples;Min_cycle;Max_cycle;Signal;HPM_P1;HPM_P2
2023/03/20 00:00:49;;;;;;;23.75;12.20;;;;;;;;;;5060844;28;20099;-67
2023/03/20 00:03:15;;;;;;;28.50;12.35;;;;;;;;;;5054226;28;20478;-67
2023/03/20 00:05:40;;;;;;;26.90;13.27;;;;;;;;;;5060737;28;20052;-67
2023/03/20 00:08:06;;;;;;;24.67;12.10;;;;;;;;;;5055643;28;20024;-67
2023/03/20 00:10:34;;;;;;;24.55;11.50;;;;;;;;;;5060934;28;20142;-67
2023/03/20 00:13:00;;;;;;;29.98;13.27;;;;;;;;;;5062213;28;20077;-67
2023/03/20 00:15:30;;;;;;;26.75;13.05;;;;;;;;;;5057755;28;20077;-67
2023/03/20 00:17:56;;;;;;;;;;;;;;;;;;5064793;28;20481;-67
2023/03/20 00:20:21;;;;;;;28.98;13.90;;;;;;;;;;5067703;28;20361;-68
2023/03/20 00:22:46;;;;;;;28.08;14.13;;;;;;;;;;5061968;28;20016;-67
2023/03/20 00:25:13;;;;;;;30.70;13.63;;;;;;;;;;5057735;28;20017;-67
2023/03/20 00:27:39;;;;;;;29.20;12.38;;;;;;;;;;5068113;28;20101;-67
2023/03/20 00:30:15;;;;;;;26.05;12.35;;;;;;;;;;5065081;28;20059;-67
2023/03/20 00:32:40;;;;;;;23.67;12.68;;;;;;;;;;5059695;28;20044;-67
2023/03/20 00:35:16;;;;;;;28.15;14.40;;;;;;;;;;5056772;28;20016;-67
2023/03/20 00:37:41;;;;;;;28.10;13.18;;;;;;;;;;5065203;28;20075;-68
2023/03/20 00:40:07;;;;;;;29.60;13.43;;;;;;;;;;5060660;28;20500;-67
2023/03/20 00:42:33;;;;;;;25.52;12.68;;;;;;;;;;5064809;28;20271;-67
2023/03/20 00:44:59;;;;;;;25.20;11.93;;;;;;;;;;5063534;28;20021;-67
2023/03/20 00:47:25;;;;;;;25.33;12.40;;;;;;;;;;5065302;28;20017;-67
2023/03/20 00:49:51;;;;;;;26.60;12.82;;;;;;;;;;5060888;28;20025;-67
2023/03/20 00:52:17;;;;;;;26.65;12.77;;;;;;;;;;5063143;28;20021;-67
2023/03/20 00:54:43;;;;;;;29.88;13.35;;;;;;;;;;5060316;28;20024;-67
2023/03/20 00:57:12;;;;;;;27.37;12.77;;;;;;;;;;5064227;28;20339;-68
2023/03/20 00:59:40;;;;;;;24.95;13.02;;;;;;;;;;5061365;28;20750;-67
2023/03/20 01:02:05;;;;;;;29.67;13.48;;;;;;;;;;5063730;28;20727;-67
2023/03/20 01:04:38;;;;;;;31.48;13.20;;;;;;;;;;5059888;28;20499;-67
2023/03/20 01:07:04;;;;;;;29.65;14.35;;;;;;;;;;5060254;28;21076;-67
2023/03/20 01:09:30;;;;;;;28.73;13.60;;;;;;;;;;5066143;28;20071;-67
2023/03/20 01:11:55;;;;;;;27.65;13.60;;;;;;;;;;5063592;28;20048;-67
2023/03/20 01:14:20;;;;;;;32.90;15.10;;;;;;;;;;5060113;28;20099;-67
2023/03/20 01:16:45;;;;;;;32.13;15.82;;;;;;;;;;5064169;28;20100;-67
2023/03/20 01:19:14;;;;;;;32.77;14.47;;;;;;;;;;5066958;28;20472;-68
2023/03/20 01:21:39;;;;;;;32.00;13.98;;;;;;;;;;5059261;28;20263;-67
2023/03/20 01:24:05;;;;;;;32.25;16.42;;;;;;;;;;5059304;28;20781;-67
2023/03/20 01:26:35;;;;;;;33.08;15.43;;;;;;;;;;5062921;28;20066;-67
2023/03/20 01:29:00;;;;;;;36.15;14.18;;;;;;;;;;5060689;28;20021;-69
2023/03/20 01:31:25;;;;;;;36.47;14.60;;;;;;;;;;5065688;28;20032;-68
2023/03/20 01:33:51;;;;;;;38.77;16.13;;;;;;;;;;5056737;28;20809;-71
2023/03/20 01:36:18;;;;;;;44.97;16.02;;;;;;;;;;5060615;28;20268;-68
2023/03/20 01:38:44;;;;;;;27.60;13.95;;;;;;;;;;5066650;28;20029;-68
2023/03/20 01:41:16;;;;;;;30.35;14.77;;;;;;;;;;5063005;28;20878;-68
2023/03/20 01:43:42;;;;;;;32.00;14.25;;;;;;;;;;5053611;28;20705;-68
2023/03/20 01:46:10;;;;;;;36.42;15.73;;;;;;;;;;5058775;28;20029;-70
2023/03/20 01:48:51;;;;;;;34.70;16.90;;;;;;;;;;5067987;28;20024;-69
2023/03/20 01:51:16;;;;;;;27.05;14.48;;;;;;;;;;5060809;28;20073;-69
2023/03/20 01:53:42;;;;;;;40.00;15.90;;;;;;;;;;5064606;28;20040;-69
2023/03/20 01:56:07;;;;;;;36.03;15.52;;;;;;;;;;5070941;28;20024;-68
2023/03/20 01:58:37;;;;;;;34.80;17.25;;;;;;;;;;5063803;28;20492;-69
2023/03/20 02:01:05;;;;;;;32.65;14.95;;;;;;;;;;5067195;28;20013;-68
2023/03/20 02:03:31;;;;;;;33.78;15.90;;;;;;;;;;5066836;28;20033;-69
2023/03/20 02:05:57;;;;;;;33.88;16.23;;;;;;;;;;5064361;28;20043;-68
2023/03/20 02:08:29;;;;;;;30.65;14.80;;;;;;;;;;5063708;28;20071;-68
2023/03/20 02:10:55;;;;;;;31.95;14.95;;;;;;;;;;5066569;28;20133;-68
2023/03/20 02:13:21;;;;;;;35.78;15.20;;;;;;;;;;5064240;28;20158;-70
2023/03/20 02:15:58;;;;;;;38.55;17.08;;;;;;;;;;5067065;28;20103;-69
2023/03/20 02:18:23;;;;;;;32.92;15.68;;;;;;;;;;5067209;28;20029;-68
2023/03/20 02:20:48;;;;;;;30.15;15.20;;;;;;;;;;5069625;28;20077;-69
2023/03/20 02:23:14;;;;;;;30.70;14.57;;;;;;;;;;5060821;28;20020;-68
2023/03/20 02:25:58;;;;;;;37.85;16.35;;;;;;;;;;5067145;28;20524;-69
2023/03/20 02:28:36;;;;;;;32.80;16.05;;;;;;;;;;5059053;28;20028;-69
2023/03/20 02:31:04;;;;;;;33.65;15.35;;;;;;;;;;5063231;28;20013;-69
2023/03/20 02:33:55;;;;;;;31.73;15.25;;;;;;;;;;5060142;28;20024;-69
2023/03/20 02:36:27;;;;;;;30.52;14.20;;;;;;;;;;5066034;28;20028;-68
2023/03/20 02:39:11;;;;;;;29.50;15.10;;;;;;;;;;5064818;28;20157;-68
2023/03/20 02:41:48;;;;;;;31.55;14.90;;;;;;;;;;5061038;28;20051;-68
2023/03/20 02:44:19;;;;;;;31.70;15.50;;;;;;;;;;5063808;28;20012;-70
2023/03/20 02:46:53;;;;;;;52.05;17.88;;;;;;;;;;5065516;28;20038;-68
2023/03/20 02:49:35;;;;;;;32.28;15.75;;;;;;;;;;5060028;28;20032;-68
2023/03/20 02:52:04;;;;;;;37.78;16.52;;;;;;;;;;5058909;28;20102;-68
2023/03/20 02:54:38;;;;;;;35.33;15.88;;;;;;;;;;5065737;28;20453;-68
2023/03/20 02:57:08;;;;;;;29.45;15.07;;;;;;;;;;5063603;28;20028;-68
2023/03/20 02:59:33;;;;;;;35.72;15.43;;;;;;;;;;5064167;28;20028;-68
2023/03/20 03:02:07;;;;;;;39.05;16.05;;;;;;;;;;5056324;28;20021;-68
2023/03/20 03:04:35;;;;;;;31.27;15.00;;;;;;;;;;5066771;28;20048;-69
2023/03/20 03:07:02;;;;;;;31.13;14.35;;;;;;;;;;5060542;28;20071;-68
2023/03/20 03:09:35;;;;;;;32.67;14.70;;;;;;;;;;5062533;28;20044;-69
2023/03/20 03:12:07;;;;;;;31.45;14.48;;;;;;;;;;5060653;28;20024;-69
2023/03/20 03:14:40;;;;;;;28.45;14.48;;;;;;;;;;5065044;28;20027;-68
2023/03/20 03:17:06;;;;;;;36.03;15.30;;;;;;;;;;5060796;28;20493;-68
2023/03/20 03:19:33;;;;;;;32.35;15.27;;;;;;;;;;5061502;28;20465;-69
2023/03/20 03:21:58;;;;;;;32.35;14.63;;;;;;;;;;5053791;28;20027;-68
2023/03/20 03:24:30;;;;;;;27.88;13.75;;;;;;;;;;5061925;28;20017;-68
2023/03/20 03:26:58;;;;;;;40.30;15.25;;;;;;;;;;5061901;28;20078;-68
2023/03/20 03:29:25;;;;;;;31.25;13.95;;;;;;;;;;5060154;28;20105;-68
2023/03/20 03:31:50;;;;;;;31.05;14.93;;;;;;;;;;5057086;28;20037;-68
2023/03/20 03:34:16;;;;;;;31.55;15.73;;;;;;;;;;5059294;28;20021;-68
2023/03/20 03:36:44;;;;;;;34.70;15.65;;;;;;;;;;5066044;28;20032;-68
2023/03/20 03:39:28;;;;;;;34.45;15.65;;;;;;;;;;5065884;28;20089;-68
2023/03/20 03:42:03;;;;;;;33.33;14.68;;;;;;;;;;5057731;28;20029;-69
2023/03/20 03:44:34;;;;;;;31.88;14.98;;;;;;;;;;5065928;28;20074;-68
2023/03/20 03:47:02;;;;;;;33.70;15.40;;;;;;;;;;5059278;28;20025;-68
2023/03/20 03:49:32;;;;;;;31.13;15.52;;;;;;;;;;5063576;28;20021;-69
2023/03/20 03:51:57;;;;;;;;;;;;;;;;;;5061174;28;20024;-69
2023/03/20 03:54:36;;;;;;;31.75;13.40;;;;;;;;;;5063476;28;19908;-68
2023/03/20 03:57:02;;;;;;;32.78;14.60;;;;;;;;;;5066506;28;20024;-68
2023/03/20 03:59:34;;;;;;;31.08;13.95;;;;;;;;;;5064790;28;20025;-69
2023/03/20 04:02:02;;;;;;;36.28;15.75;;;;;;;;;;5060428;28;20020;-68
2023/03/20 04:04:29;;;;;;;39.30;15.65;;;;;;;;;;5064011;28;20062;-68
2023/03/20 04:06:54;;;;;;;34.65;15.20;;;;;;;;;;5062236;28;20074;-68
2023/03/20 04:09:19;;;;;;;35.10;15.13;;;;;;;;;;5066590;28;20020;-68
2023/03/20 04:11:47;;;;;;;28.43;14.93;;;;;;;;;;5059499;28;20384;-70
2023/03/20 04:14:13;;;;;;;34.50;16.83;;;;;;;;;;5065617;28;20426;-69
2023/03/20 04:16:38;;;;;;;41.25;18.15;;;;;;;;;;5060424;28;20508;-68
2023/03/20 04:19:03;;;;;;;29.23;14.18;;;;;;;;;;5059265;28;20119;-68
2023/03/20 04:21:28;;;;;;;32.22;15.75;;;;;;;;;;5062495;28;20035;-68
2023/03/20 04:23:54;;;;;;;34.03;16.38;;;;;;;;;;5063318;28;20067;-69
2023/03/20 04:26:20;;;;;;;32.33;15.45;;;;;;;;;;5066395;28;20017;-68
2023/03/20 04:28:45;;;;;;;33.70;14.50;;;;;;;;;;5060096;28;20013;-69
2023/03/20 04:31:11;;;;;;;30.63;16.38;;;;;;;;;;5064055;28;20039;-68
2023/03/20 04:33:36;;;;;;;32.28;15.85;;;;;;;;;;5059624;28;20099;-69
2023/03/20 04:36:02;;;;;;;26.73;13.38;;;;;;;;;;5064296;28;20024;-68
2023/03/20 04:38:27;;;;;;;31.73;15.13;;;;;;;;;;5061886;28;20421;-68
2023/03/20 04:40:52;;;;;;;33.07;14.53;;;;;;;;;;5060762;28;20095;-68
2023/03/20 04:43:17;;;;;;;28.48;14.13;;;;;;;;;;5062582;28;20277;-68
2023/03/20 04:45:42;;;;;;;37.17;14.57;;;;;;;;;;5062566;28;20028;-68
2023/03/20 04:48:07;;;;;;;29.73;13.23;;;;;;;;;;5060502;28;20481;-68
2023/03/20 04:50:33;;;;;;;34.50;14.27;;;;;;;;;;5066082;28;20357;-69
2023/03/20 04:52:58;;;;;;;31.73;13.83;;;;;;;;;;5061719;28;20647;-71
2023/03/20 04:55:23;;;;;;;37.80;14.63;;;;;;;;;;5062166;28;20283;-68
2023/03/20 04:57:49;;;;;;;29.90;14.70;;;;;;;;;;5060868;28;20028;-68
2023/03/20 05:00:14;;;;;;;35.00;16.30;;;;;;;;;;5062792;28;20052;-69
2023/03/20 05:02:40;;;;;;;30.33;14.35;;;;;;;;;;5061525;28;20036;-68
2023/03/20 05:05:05;;;;;;;34.45;16.23;;;;;;;;;;5063117;28;20013;-68
2023/03/20 05:07:31;;;;;;;33.78;14.43;;;;;;;;;;5064910;28;20024;-70
2023/03/20 05:09:57;;;;;;;34.80;15.20;;;;;;;;;;5068280;28;20155;-70
2023/03/20 05:12:22;;;;;;;35.05;14.00;;;;;;;;;;5061204;28;20103;-71
2023/03/20 05:14:47;;;;;;;30.67;13.77;;;;;;;;;;5062194;28;20021;-68
2023/03/20 05:17:12;;;;;;;29.02;13.05;;;;;;;;;;5062135;28;20013;-68
2023/03/20 05:19:38;;;;;;;33.92;14.68;;;;;;;;;;5063229;28;20388;-68
2023/03/20 05:22:03;;;;;;;37.80;14.98;;;;;;;;;;5066384;28;20493;-69
2023/03/20 05:24:28;;;;;;;27.15;14.00;;;;;;;;;;5064532;28;20017;-68
2023/03/20 05:26:54;;;;;;;32.17;15.18;;;;;;;;;;5062727;28;20021;-69
2023/03/20 05:29:19;;;;;;;30.90;12.23;;;;;;;;;;5069967;28;21923;-68
2023/03/20 05:31:45;;;;;;;36.10;14.80;;;;;;;;;;5066970;28;20585;-68
2023/03/20 05:34:10;;;;;;;29.90;13.48;;;;;;;;;;5061549;28;20020;-68
2023/03/20 05:36:35;;;;;;;29.75;13.00;;;;;;;;;;5062697;28;20021;-68
2023/03/20 05:39:00;;;;;;;31.98;11.90;;;;;;;;;;5060358;28;20033;-68
2023/03/20 05:41:25;;;;;;;27.58;11.77;;;;;;;;;;5061362;28;20021;-68
2023/03/20 05:43:51;;;;;;;32.08;12.98;;;;;;;;;;5066901;28;20048;-69
2023/03/20 05:46:16;;;;;;;36.83;14.73;;;;;;;;;;5061846;28;20028;-69
2023/03/20 05:48:41;;;;;;;30.63;14.32;;;;;;;;;;5058270;28;20047;-69
2023/03/20 05:51:06;;;;;;;30.80;13.75;;;;;;;;;;5063461;28;20023;-68
2023/03/20 05:53:32;;;;;;;31.70;13.82;;;;;;;;;;5060246;28;20020;-68
2023/03/20 05:55:57;;;;;;;38.17;15.45;;;;;;;;;;5062422;28;20154;-68
2023/03/20 05:58:22;;;;;;;34.42;14.95;;;;;;;;;;5061986;28;20025;-70
2023/03/20 06:00:47;;;;;;;33.33;13.83;;;;;;;;;;5070080;28;20028;-68
2023/03/20 06:03:12;;;;;;;33.27;14.30;;;;;;;;;;5061098;28;20273;-70
2023/03/20 06:05:38;;;;;;;36.10;15.05;;;;;;;;;;5063151;28;20278;-69
2023/03/20 06:08:03;;;;;;;27.80;13.18;;;;;;;;;;5062040;28;20478;-69
2023/03/20 06:10:29;;;;;;;30.98;13.60;;;;;;;;;;5059182;28;20101;-68
2023/03/20 06:12:55;;;;;;;29.70;13.93;;;;;;;;;;5058204;28;20599;-68
2023/03/20 06:15:20;;;;;;;28.02;12.57;;;;;;;;;;5055573;28;20028;-68
2023/03/20 06:17:45;;;;;;;35.38;15.05;;;;;;;;;;5062281;28;20051;-68
2023/03/20 06:20:11;;;;;;;29.50;11.37;;;;;;;;;;5063936;28;20477;-68
2023/03/20 06:22:36;;;;;;;24.85;10.68;;;;;;;;;;5057272;28;20267;-68
2023/03/20 06:25:01;;;;;;;18.58;8.38;;;;;;;;;;5060284;28;20021;-70
2023/03/20 06:27:26;;;;;;;27.73;11.55;;;;;;;;;;5065654;28;20121;-68
2023/03/20 06:29:52;;;;;;;27.60;11.67;;;;;;;;;;5062869;28;20111;-68
2023/03/20 06:32:17;;;;;;;31.33;12.00;;;;;;;;;;5061150;28;20753;-68
2023/03/20 06:34:42;;;;;;;30.33;13.25;;;;;;;;;;5065086;28;20278;-68
2023/03/20 06:37:07;;;;;;;28.00;12.80;;;;;;;;;;5067886;28;20021;-69
2023/03/20 06:39:33;;;;;;;26.73;10.75;;;;;;;;;;5060511;28;20131;-68
2023/03/20 06:41:58;;;;;;;28.52;11.95;;;;;;;;;;5054822;28;20484;-69
2023/03/20 06:44:24;;;;;;;27.27;11.38;;;;;;;;;;5066230;28;20020;-68
2023/03/20 06:46:49;;;;;;;31.65;13.10;;;;;;;;;;5057333;28;20035;-68
2023/03/20 06:49:17;;;;;;;25.23;12.35;;;;;;;;;;5066580;28;20108;-68
2023/03/20 06:51:42;;;;;;;28.13;11.13;;;;;;;;;;5065111;28;20165;-69
2023/03/20 06:54:07;;;;;;;23.77;12.10;;;;;;;;;;5065346;28;20023;-68
2023/03/20 06:56:33;;;;;;;29.70;12.93;;;;;;;;;;5064219;28;20033;-68
2023/03/20 06:58:58;;;;;;;27.33;11.88;;;;;;;;;;5062789;28;20323;-68
2023/03/20 07:01:23;;;;;;;25.57;10.63;;;;;;;;;;5064421;28;20027;-69
2023/03/20 07:03:49;;;;;;;28.92;10.23;;;;;;;;;;5067942;28;20266;-68
2023/03/20 07:06:14;;;;;;;28.77;12.60;;;;;;;;;;5064533;28;20036;-68
2023/03/20 07:08:39;;;;;;;28.52;11.00;;;;;;;;;;5061018;28;20029;-70
2023/03/20 07:11:05;;;;;;;36.40;13.60;;;;;;;;;;5056173;28;20032;-69
2023/03/20 07:13:31;;;;;;;32.58;12.70;;;;;;;;;;5065959;28;20090;-69
2023/03/20 07:15:57;;;;;;;27.23;13.35;;;;;;;;;;5067686;28;20028;-69
2023/03/20 07:18:22;;;;;;;33.40;13.95;;;;;;;;;;5060611;28;20017;-67
2023/03/20 07:20:49;;;;;;;37.55;14.43;;;;;;;;;;5060562;28;20060;-69
2023/03/20 07:23:15;;;;;;;26.27;9.98;;;;;;;;;;5065206;28;20017;-69
2023/03/20 07:25:40;;;;;;;34.07;14.57;;;;;;;;;;5059702;28;20021;-69
2023/03/20 07:28:05;;;;;;;38.90;16.40;;;;;;;;;;5065307;28;20310;-69
2023/03/20 07:30:33;;;;;;;23.93;11.23;;;;;;;;;;5065415;28;20263;-69
2023/03/20 07:32:58;;;;;;;26.50;12.27;;;;;;;;;;5056857;28;20771;-69
2023/03/20 07:35:24;;;;;;;28.47;11.87;;;;;;;;;;5061149;28;20103;-69
2023/03/20 07:37:49;;;;;;;26.42;12.93;;;;;;;;;;5059534;28;20283;-69
2023/03/20 07:40:14;;;;;;;28.35;12.30;;;;;;;;;;5063057;28;20429;-69
2023/03/20 07:42:40;;;;;;;16.65;7.25;;;;;;;;;;5062484;28;20024;-69
2023/03/20 07:45:06;;;;;;;21.15;7.82;;;;;;;;;;5070390;28;20055;-69
2023/03/20 07:47:31;;;;;;;22.23;10.23;;;;;;;;;;5069438;28;20107;-69
2023/03/20 07:49:57;;;;;;;20.63;9.77;;;;;;;;;;5056908;28;20549;-69
2023/03/20 07:52:22;;;;;;;24.20;7.87;;;;;;;;;;5063133;28;20521;-69
2023/03/20 07:54:47;;;;;;;18.05;9.13;;;;;;;;;;5062681;28;20324;-69
2023/03/20 07:57:12;;;;;;;26.07;12.13;;;;;;;;;;5065249;28;20022;-69
2023/03/20 07:59:37;;;;;;;21.87;9.37;;;;;;;;;;5070301;28;20776;-70
2023/03/20 08:02:02;;;;;;;18.10;7.47;;;;;;;;;;5057477;28;20275;-69
2023/03/20 08:04:28;;;;;;;22.43;10.93;;;;;;;;;;5062196;28;20277;-69
2023/03/20 08:06:53;;;;;;;19.40;9.23;;;;;;;;;;5069949;28;20251;-69
2023/03/20 08:09:18;;;;;;;21.20;9.20;;;;;;;;;;5066786;28;20782;-69
2023/03/20 08:11:44;;;;;;;23.27;8.15;;;;;;;;;;5068399;28;20353;-69
2023/03/20 08:14:09;;;;;;;17.50;6.55;;;;;;;;;;5067677;28;20016;-69
2023/03/20 08:16:34;;;;;;;11.85;5.30;;;;;;;;;;5059033;28;20032;-69
2023/03/20 08:19:00;;;;;;;12.20;6.37;;;;;;;;;;5067505;28;20037;-69
2023/03/20 08:21:26;;;;;;;23.42;10.27;;;;;;;;;;5068545;28;20307;-69
2023/03/20 08:23:52;;;;;;;17.08;7.30;;;;;;;;;;5068597;28;20020;-69
2023/03/20 08:26:17;;;;;;;22.17;8.30;;;;;;;;;;5070199;28;20440;-69
2023/03/20 08:28:42;;;;;;;21.90;8.53;;;;;;;;;;5066461;28;20032;-69
2023/03/20 08:31:08;;;;;;;19.73;8.38;;;;;;;;;;5060118;28;20791;-69
2023/03/20 08:33:33;;;;;;;18.92;8.30;;;;;;;;;;5059156;28;20058;-69
2023/03/20 08:35:58;;;;;;;21.77;7.25;;;;;;;;;;5068074;28;20016;-69
2023/03/20 08:38:24;;;;;;;21.77;10.03;;;;;;;;;;5064080;28;20535;-69
2023/03/20 08:40:49;;;;;;;19.45;8.52;;;;;;;;;;5056656;28;20271;-70
2023/03/20 08:43:14;;;;;;;20.10;9.63;;;;;;;;;;5057704;28;20025;-68
2023/03/20 08:45:39;;;;;;;9.73;5.00;;;;;;;;;;5059549;28;20025;-69
2023/03/20 08:48:05;;;;;;;24.08;9.35;;;;;;;;;;5065011;28;20314;-69
2023/03/20 08:50:30;;;;;;;14.80;7.90;;;;;;;;;;5067943;28;20029;-69
2023/03/20 08:52:55;;;;;;;18.90;8.57;;;;;;;;;;5063162;28;20029;-69
2023/03/20 08:55:20;;;;;;;24.23;6.40;;;;;;;;;;5058788;28;20496;-69
2023/03/20 08:57:46;;;;;;;20.10;6.55;;;;;;;;;;5069427;28;20502;-69
2023/03/20 09:00:13;;;;;;;20.98;9.15;;;;;;;;;;5063836;28;20029;-70
2023/03/20 09:02:38;;;;;;;20.13;8.00;;;;;;;;;;5066508;28;20078;-70
2023/03/20 09:05:04;;;;;;;20.58;8.65;;;;;;;;;;5064951;28;20385;-69
2023/03/20 09:07:29;;;;;;;20.40;6.65;;;;;;;;;;5066114;28;20028;-70
2023/03/20 09:09:54;;;;;;;19.90;7.40;;;;;;;;;;5065758;28;20028;-69
2023/03/20 09:12:19;;;;;;;19.50;7.30;;;;;;;;;;5058771;28;20032;-70
2023/03/20 09:14:44;;;;;;;21.30;8.60;;;;;;;;;;5066040;28;20711;-69
2023/03/20 09:17:10;;;;;;;19.67;7.57;;;;;;;;;;5071908;28;20296;-70
2023/03/20 09:19:38;;;;;;;26.60;8.70;;;;;;;;;;5071720;28;20024;-69
2023/03/20 09:22:03;;;;;;;24.25;8.95;;;;;;;;;;5060321;28;20162;-70
2023/03/20 09:24:30;;;;;;;22.35;11.05;;;;;;;;;;5069104;28;20491;-70
2023/03/20 09:26:55;;;;;;;25.75;9.52;;;;;;;;;;5069866;28;20039;-70
2023/03/20 09:29:20;;;;;;;26.10;9.93;;;;;;;;;;5060290;28;20813;-69
2023/03/20 09:31:45;;;;;;;28.02;9.65;;;;;;;;;;5066671;28;20474;-70
2023/03/20 09:37:17;;;;;;;20.35;8.07;;;;;;;;;;5069193;28;20239;-68
2023/03/20 09:39:42;;;;;;;19.67;8.95;;;;;;;;;;5066994;28;20617;-68
2023/03/20 09:42:16;;;;;;;22.53;10.97;;;;;;;;;;5056485;28;20050;-68
2023/03/20 09:45:00;;;;;;;27.00;11.55;;;;;;;;;;5063245;28;20298;-68
2023/03/20 09:47:48;;;;;;;21.15;11.32;;;;;;;;;;5070992;28;20461;-68
2023/03/20 09:50:13;;;;;;;32.90;13.00;;;;;;;;;;5059901;28;20031;-68
2023/03/20 09:53:07;;;;;;;29.60;14.23;;;;;;;;;;5057214;28;20021;-68
2023/03/20 09:55:34;;;;;;;28.13;11.90;;;;;;;;;;5024462;28;20344;-68
2023/03/20 09:58:11;;;;;;;27.08;12.10;;;;;;;;;;5061098;28;20075;-68
2023/03/20 10:00:36;;;;;;;29.38;12.90;;;;;;;;;;5063155;28;20040;-68
2023/03/20 10:03:07;;;;;;;27.67;12.32;;;;;;;;;;5056708;28;20051;-68
2023/03/20 10:05:43;;;;;;;29.65;13.43;;;;;;;;;;5060008;28;20478;-69
2023/03/20 10:08:11;;;;;;;16.98;4.78;;;;;;;;;;5058505;28;20029;-69
2023/03/20 10:10:41;;;;;;;19.95;10.25;;;;;;;;;;5063073;28;20051;-69
2023/03/20 10:13:06;;;;;;;13.23;7.88;;;;;;;;;;5059601;28;20027;-69
2023/03/20 10:15:40;;;;;;;18.70;8.60;;;;;;;;;;5057444;28;20120;-69
2023/03/20 10:18:14;;;;;;;26.48;12.35;;;;;;;;;;5067654;28;20090;-70
2023/03/20 10:20:41;;;;;;;23.63;10.02;;;;;;;;;;5065753;28;20473;-70
2023/03/20 10:23:24;;;;;;;15.27;8.20;;;;;;;;;;5067111;28;20455;-70
2023/03/20 10:26:09;;;;;;;28.27;10.80;;;;;;;;;;5062339;28;20078;-70
2023/03/20 10:28:35;;;;;;;20.70;9.40;;;;;;;;;;5060637;28;20044;-70
2023/03/20 10:31:03;;;;;;;16.58;8.55;;;;;;;;;;5066266;28;20024;-70
2023/03/20 10:33:34;;;;;;;14.10;6.03;;;;;;;;;;5066491;28;20021;-70
2023/03/20 10:36:09;;;;;;;17.33;5.72;;;;;;;;;;5059449;28;20036;-70
2023/03/20 10:38:34;;;;;;;25.25;8.93;;;;;;;;;;5060017;28;20036;-70
2023/03/20 10:40:59;;;;;;;21.42;8.70;;;;;;;;;;5067961;28;20035;-70
2023/03/20 10:43:33;;;;;;;23.73;8.40;;;;;;;;;;5062083;28;20020;-70
2023/03/20 10:46:17;;;;;;;23.42;7.90;;;;;;;;;;5066144;28;20099;-70
2023/03/20 10:48:45;;;;;;;18.77;7.47;;;;;;;;;;5027881;28;1025323;-70
2023/03/20 10:51:15;;;;;;;14.10;6.90;;;;;;;;;;5057809;28;20090;-70
2023/03/20 10:53:45;;;;;;;15.43;6.47;;;;;;;;;;5056872;28;20029;-70
2023/03/20 10:56:15;;;;;;;12.13;5.30;;;;;;;;;;5055401;28;20398;-70
2023/03/20 10:58:42;;;;;;;10.25;4.55;;;;;;;;;;5063034;28;20036;-70
2023/03/20 11:01:08;;;;;;;16.20;4.68;;;;;;;;;;5056024;28;20069;-70
2023/03/20 11:03:38;;;;;;;14.90;5.00;;;;;;;;;;5063731;28;20099;-70
2023/03/20 11:06:18;;;;;;;6.88;2.53;;;;;;;;;;5058104;28;20489;-70
2023/03/20 11:08:46;;;;;;;9.73;3.88;;;;;;;;;;5065514;28;20562;-70
2023/03/20 11:11:11;;;;;;;17.05;4.80;;;;;;;;;;5060226;28;20428;-70
2023/03/20 11:13:42;;;;;;;10.85;4.70;;;;;;;;;;5061635;28;20028;-70
2023/03/20 11:16:10;;;;;;;17.88;4.88;;;;;;;;;;5058709;28;20272;-70
2023/03/20 11:18:35;;;;;;;11.95;4.10;;;;;;;;;;5057177;28;20490;-70
2023/03/20 11:21:01;;;;;;;13.48;4.07;;;;;;;;;;5058173;28;20120;-70
2023/03/20 11:23:29;;;;;;;12.60;4.80;;;;;;;;;;5063481;28;20036;-70
2023/03/20 11:25:57;;;;;;;12.35;4.68;;;;;;;;;;5065880;28;20509;-71
2023/03/20 11:28:31;;;;;;;9.27;4.03;;;;;;;;;;5070513;28;20032;-70
2023/03/20 11:31:12;;;;;;;9.93;5.45;;;;;;;;;;5055940;28;20393;-70
2023/03/20 11:33:39;;;;;;;12.98;3.78;;;;;;;;;;5060830;28;20100;-70
2023/03/20 11:36:09;;;;;;;8.40;3.63;;;;;;;;;;5061644;28;20071;-70
2023/03/20 11:38:41;;;;;;;12.05;3.58;;;;;;;;;;5061809;28;20036;-70
2023/03/20 11:41:15;;;;;;;12.63;3.13;;;;;;;;;;5063957;28;20687;-71
2023/03/20 11:43:40;;;;;;;8.77;2.00;;;;;;;;;;5061852;28;20040;-70
2023/03/20 11:46:11;;;;;;;14.70;3.10;;;;;;;;;;5067993;28;20083;-70
2023/03/20 11:48:38;;;;;;;6.00;2.38;;;;;;;;;;5072497;28;20353;-70
2023/03/20 11:51:05;;;;;;;7.32;1.67;;;;;;;;;;5058174;28;20079;-70
2023/03/20 11:53:32;;;;;;;7.38;2.40;;;;;;;;;;5061899;28;20112;-71
2023/03/20 11:56:05;;;;;;;8.30;1.90;;;;;;;;;;5065187;28;20123;-71
2023/03/20 11:58:31;;;;;;;12.68;3.20;;;;;;;;;;5061097;28;20070;-70
2023/03/20 12:00:56;;;;;;;10.82;3.38;;;;;;;;;;5062008;28;20025;-71
2023/03/20 12:03:41;;;;;;;7.47;1.77;;;;;;;;;;5065698;28;20024;-70
2023/03/20 12:06:07;;;;;;;9.98;2.90;;;;;;;;;;5056696;28;20020;-70
2023/03/20 12:08:34;;;;;;;13.63;2.50;;;;;;;;;;5060966;28;20104;-71
2023/03/20 12:11:02;;;;;;;3.40;1.45;;;;;;;;;;5059394;28;20549;-71
2023/03/20 12:13:32;;;;;;;7.75;2.40;;;;;;;;;;5061958;28;20082;-71
2023/03/20 12:16:00;;;;;;;2.80;1.40;;;;;;;;;;5061171;28;20052;-71
2023/03/20 12:18:34;;;;;;;4.38;2.13;;;;;;;;;;5060219;28;20017;-71
2023/03/20 12:21:03;;;;;;;13.70;2.47;;;;;;;;;;5062440;28;20009;-71
2023/03/20 12:23:28;;;;;;;6.28;2.42;;;;;;;;;;5059211;28;20095;-71
2023/03/20 12:26:02;;;;;;;4.32;2.80;;;;;;;;;;5058277;28;20100;-71
2023/03/20 12:28:45;;;;;;;7.55;2.30;;;;;;;;;;5058723;28;20021;-70
2023/03/20 12:31:33;;;;;;;9.85;3.35;;;;;;;;;;5066730;28;20020;-70
2023/03/20 12:34:11;;;;;;;11.52;2.55;;;;;;;;;;5050326;28;20040;-71
2023/03/20 12:36:38;;;;;;;16.63;3.55;;;;;;;;;;5065779;28;20039;-71
2023/03/20 12:39:05;;;;;;;7.38;2.95;;;;;;;;;;5061394;28;20104;-71
2023/03/20 12:41:40;;;;;;;4.20;1.50;;;;;;;;;;5060369;28;20013;-71
2023/03/20 12:44:17;;;;;;;6.95;2.67;;;;;;;;;;5055331;28;20346;-71
2023/03/20 12:46:56;;;;;;;23.17;4.07;;;;;;;;;;5066519;28;20020;-71
2023/03/20 12:49:31;;;;;;;14.83;3.40;;;;;;;;;;5067591;28;20162;-71
2023/03/20 12:51:56;;;;;;;14.50;3.67;;;;;;;;;;5061959;28;20771;-71
2023/03/20 12:54:36;;;;;;;6.75;2.38;;;;;;;;;;5058773;28;20024;-71
2023/03/20 12:57:01;;;;;;;10.35;3.85;;;;;;;;;;5065881;28;20290;-71
2023/03/20 12:59:42;;;;;;;11.48;3.33;;;;;;;;;;5067697;28;20043;-71
2023/03/20 13:02:15;;;;;;;9.85;3.45;;;;;;;;;;5061490;28;20115;-71
2023/03/20 13:04:53;;;;;;;14.13;3.13;;;;;;;;;;5060029;28;20121;-71
2023/03/20 13:07:19;;;;;;;10.65;3.47;;;;;;;;;;5058837;28;20374;-70
2023/03/20 13:10:07;;;;;;;6.80;3.97;;;;;;;;;;5065597;28;20059;-71
2023/03/20 13:12:43;;;;;;;8.68;2.95;;;;;;;;;;5059112;28;20108;-71
2023/03/20 13:15:14;;;;;;;8.77;3.25;;;;;;;;;;5057506;28;20099;-70
2023/03/20 13:17:54;;;;;;;10.23;3.45;;;;;;;;;;5062773;28;20024;-70
2023/03/20 13:20:23;;;;;;;7.65;2.75;;;;;;;;;;5062916;28;20049;-71
2023/03/20 13:23:07;;;;;;;6.03;2.53;;;;;;;;;;5058889;28;20082;-70
2023/03/20 13:25:35;;;;;;;6.97;2.45;;;;;;;;;;5062732;28;20013;-70
2023/03/20 13:28:09;;;;;;;6.28;1.55;;;;;;;;;;5064797;28;20026;-71
2023/03/20 13:30:39;;;;;;;7.93;2.15;;;;;;;;;;5061941;28;20020;-70
2023/03/20 13:33:04;;;;;;;12.13;2.00;;;;;;;;;;5061199;28;20049;-70
2023/03/20 13:35:41;;;;;;;6.80;2.90;;;;;;;;;;5063935;28;20084;-71
2023/03/20 13:38:13;;;;;;;6.22;3.10;;;;;;;;;;5053031;28;20036;-70
2023/03/20 13:40:40;;;;;;;10.55;5.15;;;;;;;;;;5060528;28;20020;-70
2023/03/20 13:43:22;;;;;;;8.63;2.17;;;;;;;;;;5068016;28;20013;-71
2023/03/20 13:45:48;;;;;;;15.73;2.35;;;;;;;;;;5068881;28;20015;-70
2023/03/20 13:48:19;;;;;;;12.55;2.10;;;;;;;;;;5068000;28;20045;-70
2023/03/20 13:50:50;;;;;;;6.75;1.60;;;;;;;;;;5060431;28;20029;-70
2023/03/20 13:53:24;;;;;;;13.32;1.63;;;;;;;;;;5067074;28;20028;-70
2023/03/20 13:55:57;;;;;;;9.93;1.98;;;;;;;;;;5064004;28;20020;-70
2023/03/20 13:58:33;;;;;;;12.32;2.75;;;;;;;;;;5078215;28;20029;-70
2023/03/20 14:01:16;;;;;;;4.32;1.15;;;;;;;;;;5061055;28;20549;-70
2023/03/20 14:03:44;;;;;;;8.13;2.22;;;;;;;;;;5065979;28;20085;-70
2023/03/20 14:06:16;;;;;;;7.65;1.70;;;;;;;;;;5058376;28;20044;-70
2023/03/20 14:08:51;;;;;;;6.53;1.83;;;;;;;;;;5060094;28;20062;-71
2023/03/20 14:11:19;;;;;;;9.23;2.20;;;;;;;;;;5058972;28;20025;-70
2023/03/20 14:13:46;;;;;;;12.00;2.30;;;;;;;;;;5070084;28;20013;-71
2023/03/20 14:16:13;;;;;;;7.50;2.08;;;;;;;;;;5069338;28;20943;-70
2023/03/20 14:18:39;;;;;;;4.20;1.92;;;;;;;;;;5062432;28;20107;-70
2023/03/20 14:21:12;;;;;;;11.13;1.73;;;;;;;;;;5055060;28;20108;-70
2023/03/20 14:23:40;;;;;;;3.78;1.15;;;;;;;;;;5064221;28;20048;-70
2023/03/20 14:26:16;;;;;;;4.93;1.63;;;;;;;;;;5065988;28;20021;-70
2023/03/20 14:28:52;;;;;;;6.47;1.60;;;;;;;;;;5071677;28;20401;-70
2023/03/20 14:31:17;;;;;;;6.82;1.67;;;;;;;;;;5064776;28;20021;-70
2023/03/20 14:33:43;;;;;;;8.40;1.17;;;;;;;;;;5061777;28;20032;-70
2023/03/20 14:36:17;;;;;;;11.82;1.90;;;;;;;;;;5061266;28;20752;-71